NCAR-RAP Real-Time Weather Data

Output produced by METARs form (26 June 2016  09:55 UTC)
found at http://weather.rap.ucar.edu/surface/
 
Conditions at: KSDF observed 26 June 2016  08:56 UTC
Temperature: 24.4°C (76°F)
Dewpoint: 20.0°C (68°F) [RH = 77%]
Pressure (altimeter): 30.08 inches Hg (1018.7 mb)
[Sea-level pressure: 1018.0 mb]
Winds: from the E (100 degrees) at 3 MPH (3 knots; 1.6 m/s)
Visibility: 9 miles (14 km)
Ceiling: at least 12,000 feet AGL
Clouds: few clouds at 25000 feet AGL
Present Weather: no significant weather observed at this time
KSDF 260856Z 10003KT 9SM FEW250 24/20 A3008 RMK AO2 SLP180 T02440200 58002